createdAt,value
2023-12-09T00:02:07.447Z,6.49
2023-12-09T00:04:39.987Z,6.45
2023-12-09T00:07:09.935Z,6.41
2023-12-09T00:09:40.027Z,6.39
2023-12-09T00:12:10.312Z,6.39
2023-12-09T00:14:40.144Z,6.40
2023-12-09T00:17:10.025Z,6.43
2023-12-09T00:19:42.649Z,6.44
2023-12-09T00:22:12.755Z,6.47
2023-12-09T00:24:42.720Z,6.49
2023-12-09T00:27:12.475Z,6.50
2023-12-09T00:29:42.262Z,6.55
2023-12-09T00:32:12.022Z,6.57
2023-12-09T00:34:44.379Z,6.59
2023-12-09T00:37:14.225Z,6.62
2023-12-09T00:39:43.989Z,6.62
2023-12-09T00:42:14.733Z,6.62
2023-12-09T00:44:44.516Z,6.57
2023-12-09T00:47:16.846Z,6.56
2023-12-09T00:49:49.244Z,6.54
2023-12-09T00:52:19.103Z,6.55
2023-12-09T00:54:48.889Z,6.55
2023-12-09T00:57:19.004Z,6.54
2023-12-09T00:59:48.799Z,6.53
2023-12-09T01:02:18.599Z,6.52
2023-12-09T01:04:51.047Z,6.52
2023-12-09T01:07:20.817Z,6.49
2023-12-09T01:09:50.569Z,6.46
2023-12-09T01:12:20.408Z,6.37
2023-12-09T01:14:50.215Z,6.30
2023-12-09T01:17:20.119Z,6.24
2023-12-09T01:19:52.512Z,6.19
2023-12-09T01:22:22.324Z,6.14
2023-12-09T01:24:52.367Z,6.09
2023-12-09T01:27:22.117Z,6.05
2023-12-09T01:29:51.955Z,6.03
2023-12-09T01:32:21.765Z,6.03
2023-12-09T01:34:54.259Z,6.04
2023-12-09T01:37:24.026Z,6.05
2023-12-09T01:39:53.862Z,6.06
2023-12-09T01:42:23.750Z,6.05
2023-12-09T01:44:53.660Z,6.08
2023-12-09T01:47:23.508Z,6.13
2023-12-09T01:49:56.041Z,6.19
2023-12-09T01:52:26.068Z,6.24
2023-12-09T01:54:55.962Z,6.29
2023-12-09T01:57:25.793Z,6.33
2023-12-09T01:59:55.807Z,6.32
2023-12-09T02:02:26.076Z,6.30
2023-12-09T02:04:59.668Z,6.30
2023-12-09T02:07:29.393Z,6.33
2023-12-09T02:09:59.091Z,6.35
2023-12-09T02:12:33.510Z,6.38
2023-12-09T02:15:07.478Z,6.41
2023-12-09T02:17:44.853Z,6.44
2023-12-09T02:20:17.572Z,6.46
2023-12-09T02:22:47.773Z,6.47
2023-12-09T02:25:20.312Z,6.46
2023-12-09T02:27:53.111Z,6.46
2023-12-09T02:30:26.228Z,6.46
2023-12-09T02:33:00.331Z,6.45
2023-12-09T02:35:32.047Z,6.47
2023-12-09T02:38:02.331Z,6.48
2023-12-09T02:40:35.036Z,6.44
2023-12-09T02:43:05.600Z,6.36
2023-12-09T02:45:35.957Z,6.24
2023-12-09T02:48:06.225Z,6.14
2023-12-09T02:50:37.532Z,6.07
2023-12-09T02:53:07.336Z,6.01
2023-12-09T02:55:39.671Z,5.99
2023-12-09T02:58:09.456Z,5.93
2023-12-09T03:00:39.287Z,5.90
2023-12-09T03:03:09.188Z,5.90
2023-12-09T03:05:38.961Z,5.92
2023-12-09T03:08:08.729Z,5.96
2023-12-09T03:10:41.093Z,6.00
2023-12-09T03:13:10.851Z,6.02
2023-12-09T03:15:40.585Z,6.06
2023-12-09T03:18:10.562Z,6.08
2023-12-09T03:20:40.474Z,6.12
2023-12-09T03:23:10.214Z,6.16
2023-12-09T03:25:42.537Z,6.20
2023-12-09T03:28:12.284Z,6.22
2023-12-09T03:30:42.037Z,6.21
2023-12-09T03:33:12.033Z,6.18
2023-12-09T03:35:41.824Z,6.08
2023-12-09T03:38:11.605Z,5.95
2023-12-09T03:40:43.947Z,5.80
2023-12-09T03:43:13.718Z,5.64
2023-12-09T03:45:44.927Z,5.54
2023-12-09T03:48:14.755Z,5.41
2023-12-09T03:50:44.597Z,5.30
2023-12-09T03:53:14.505Z,5.18
2023-12-09T03:55:47.003Z,5.07
2023-12-09T03:58:17.169Z,5.03
2023-12-09T04:00:47.121Z,4.96
2023-12-09T04:03:16.932Z,4.93
2023-12-09T04:05:46.752Z,4.90
2023-12-09T04:08:16.518Z,4.88
2023-12-09T04:10:48.994Z,4.85
2023-12-09T04:13:18.936Z,4.84
2023-12-09T04:15:48.685Z,4.84
2023-12-09T04:18:18.869Z,4.82
2023-12-09T04:20:48.742Z,4.79
2023-12-09T04:23:20.033Z,4.75
2023-12-09T04:25:52.349Z,4.71
2023-12-09T04:28:22.106Z,4.66
2023-12-09T04:30:51.845Z,4.64
2023-12-09T04:33:21.933Z,4.62
2023-12-09T04:35:51.867Z,4.58
2023-12-09T04:38:21.608Z,4.54
2023-12-09T04:40:53.923Z,4.51
2023-12-09T04:43:23.659Z,4.47
2023-12-09T04:45:53.605Z,4.43
2023-12-09T04:48:23.493Z,4.38
2023-12-09T04:50:53.344Z,4.36
2023-12-09T04:53:21.982Z,4.36
2023-12-09T04:55:54.320Z,4.33
2023-12-09T04:58:24.057Z,4.33
2023-12-09T05:00:54.042Z,4.31
2023-12-09T05:03:24.238Z,4.28
2023-12-09T05:05:54.107Z,4.26
2023-12-09T05:08:23.938Z,4.29
2023-12-09T05:10:56.279Z,4.32
2023-12-09T05:13:26.009Z,4.33
2023-12-09T05:15:55.727Z,4.34
2023-12-09T05:18:25.651Z,4.33
2023-12-09T05:20:55.505Z,4.34
2023-12-09T05:23:25.349Z,4.35
2023-12-09T05:25:57.847Z,4.34
2023-12-09T05:28:27.569Z,4.35
2023-12-09T05:30:57.503Z,4.38
2023-12-09T05:33:27.388Z,4.46
2023-12-09T05:35:57.215Z,4.49
2023-12-09T05:38:26.935Z,4.53
2023-12-09T05:40:59.278Z,4.55
2023-12-09T05:43:28.992Z,4.54
2023-12-09T05:45:58.782Z,4.51
2023-12-09T05:48:28.921Z,4.50
2023-12-09T05:50:58.742Z,4.48
2023-12-09T05:53:28.534Z,4.43
2023-12-09T05:56:00.939Z,4.40
2023-12-09T05:58:30.686Z,4.36
2023-12-09T06:01:01.739Z,4.36
2023-12-09T06:03:31.642Z,4.34
2023-12-09T06:06:01.996Z,4.33
2023-12-09T06:08:31.759Z,4.32
2023-12-09T06:11:04.100Z,4.32
2023-12-09T06:13:35.002Z,4.35
2023-12-09T06:16:04.810Z,4.33
2023-12-09T06:18:34.585Z,4.33
2023-12-09T06:21:04.313Z,4.32
2023-12-09T06:23:34.099Z,4.32
2023-12-09T06:26:07.402Z,4.35
2023-12-09T06:28:37.125Z,4.37
2023-12-09T06:31:07.199Z,4.46
2023-12-09T06:33:37.926Z,4.54
2023-12-09T06:36:09.190Z,4.62
2023-12-09T06:38:42.252Z,4.74
2023-12-09T06:41:15.040Z,4.88
2023-12-09T06:43:44.797Z,5.02
2023-12-09T06:46:14.815Z,5.15
2023-12-09T06:48:44.639Z,5.25
2023-12-09T06:51:18.390Z,5.35
2023-12-09T06:53:48.221Z,5.43
2023-12-09T06:56:26.819Z,5.49
2023-12-09T06:58:56.943Z,5.53
2023-12-09T07:01:28.436Z,5.57
2023-12-09T07:03:58.984Z,5.61
2023-12-09T07:06:30.196Z,5.61
2023-12-09T07:09:00.705Z,5.59
2023-12-09T07:11:34.049Z,5.52
2023-12-09T07:14:03.811Z,5.45
2023-12-09T07:16:30.975Z,5.37
2023-12-09T07:19:02.136Z,5.30
2023-12-09T07:21:32.528Z,5.24
2023-12-09T07:24:02.416Z,5.19
2023-12-09T07:26:34.937Z,5.14
2023-12-09T07:29:06.754Z,5.11
2023-12-09T07:31:36.612Z,5.08
2023-12-09T07:34:06.581Z,5.06
2023-12-09T07:36:36.623Z,5.07
2023-12-09T07:39:06.477Z,5.07
2023-12-09T07:41:39.118Z,5.07
2023-12-09T07:44:08.905Z,5.08
2023-12-09T07:46:38.672Z,5.13
2023-12-09T07:49:08.497Z,5.18
2023-12-09T07:51:38.385Z,5.25
2023-12-09T07:54:11.279Z,5.32
2023-12-09T07:56:43.777Z,5.38
2023-12-09T07:59:13.495Z,5.42
2023-12-09T08:01:43.448Z,5.45
2023-12-09T08:04:13.316Z,5.51
2023-12-09T08:06:43.138Z,5.57
2023-12-09T08:09:12.968Z,5.63
2023-12-09T08:11:45.315Z,5.66
2023-12-09T08:14:15.107Z,5.71
2023-12-09T08:16:44.816Z,5.78
2023-12-09T08:19:14.718Z,5.86
2023-12-09T08:21:44.542Z,5.97
2023-12-09T08:24:14.398Z,6.05
2023-12-09T08:26:46.758Z,6.12
2023-12-09T08:29:16.550Z,6.16
2023-12-09T08:31:48.038Z,6.17
2023-12-09T08:34:17.930Z,6.19
2023-12-09T08:36:48.102Z,6.20
2023-12-09T08:39:19.292Z,6.21
2023-12-09T08:41:51.750Z,6.23
2023-12-09T08:44:21.927Z,6.26
2023-12-09T08:47:16.915Z,6.28
2023-12-09T08:50:22.471Z,6.31
2023-12-09T08:52:57.384Z,6.35
2023-12-09T08:55:27.362Z,6.37
2023-12-09T08:57:59.734Z,6.43
2023-12-09T09:00:29.537Z,6.48
2023-12-09T09:02:59.328Z,6.52
2023-12-09T09:05:29.640Z,6.55
2023-12-09T09:07:59.423Z,6.60
2023-12-09T09:10:29.362Z,6.64
2023-12-09T09:13:01.693Z,6.67
2023-12-09T09:15:32.071Z,6.69
2023-12-09T09:18:01.943Z,6.71
2023-12-09T09:20:48.459Z,6.74
2023-12-09T09:24:19.938Z,6.84
2023-12-09T09:31:47.973Z,7.56
2023-12-09T09:34:58.604Z,7.88
2023-12-09T09:38:17.833Z,7.93
2023-12-09T09:41:42.118Z,7.88
2023-12-09T09:58:57.177Z,7.79
2023-12-09T10:01:27.891Z,7.76
2023-12-09T10:03:57.645Z,7.77
2023-12-09T10:06:28.594Z,7.79
2023-12-09T10:08:58.457Z,7.78
2023-12-09T10:11:28.201Z,7.74
2023-12-09T10:14:00.557Z,7.72
2023-12-09T10:16:30.391Z,7.70
2023-12-09T10:19:00.506Z,7.68
2023-12-09T10:21:30.355Z,7.65
2023-12-09T10:24:00.203Z,7.63
2023-12-09T10:26:30.065Z,7.65
2023-12-09T10:29:02.520Z,7.63
2023-12-09T10:31:32.981Z,7.62
2023-12-09T10:34:02.786Z,7.61
2023-12-09T10:36:33.729Z,7.62
2023-12-09T10:39:03.845Z,7.66
2023-12-09T10:41:33.596Z,7.72
2023-12-09T10:44:06.930Z,7.81
2023-12-09T10:46:38.975Z,7.87
2023-12-09T10:49:09.227Z,7.92
2023-12-09T10:51:39.250Z,7.96
2023-12-09T10:54:09.075Z,8.00
2023-12-09T10:56:38.977Z,8.01
2023-12-09T10:59:12.915Z,8.06
2023-12-09T11:01:42.922Z,8.10
2023-12-09T11:04:14.179Z,8.09
2023-12-09T11:06:45.051Z,8.11
2023-12-09T11:09:17.261Z,8.10
2023-12-09T11:11:47.000Z,8.08
2023-12-09T11:14:20.162Z,8.04
2023-12-09T11:16:50.274Z,8.02
2023-12-09T11:19:20.818Z,8.02
2023-12-09T11:21:50.905Z,8.01
2023-12-09T11:24:22.363Z,7.99
2023-12-09T11:26:52.101Z,7.98
2023-12-09T11:29:24.567Z,7.96
2023-12-09T11:31:54.823Z,7.94
2023-12-09T11:34:27.205Z,7.95
2023-12-09T11:36:58.227Z,7.94
2023-12-09T11:39:28.296Z,7.93
2023-12-09T11:41:58.880Z,7.96
2023-12-09T11:44:31.640Z,7.99
2023-12-09T11:47:01.504Z,8.01
2023-12-09T11:49:31.393Z,8.01
2023-12-09T11:52:01.348Z,8.02
2023-12-09T11:54:31.138Z,8.03
2023-12-09T11:57:00.912Z,8.05
2023-12-09T11:59:33.341Z,8.06
2023-12-09T12:02:03.104Z,8.06
2023-12-09T12:04:37.487Z,8.08
2023-12-09T12:07:08.609Z,8.13
2023-12-09T12:09:40.124Z,8.14
2023-12-09T12:12:10.421Z,8.12
2023-12-09T12:14:42.710Z,8.12
2023-12-09T12:17:16.530Z,8.14
2023-12-09T12:19:47.700Z,8.19
2023-12-09T12:22:17.465Z,8.23
2023-12-09T12:24:47.969Z,8.28
2023-12-09T12:27:17.781Z,8.33
2023-12-09T12:29:50.218Z,8.38
2023-12-09T12:32:20.081Z,8.43
2023-12-09T12:34:50.075Z,8.48
2023-12-09T12:37:21.415Z,8.57
2023-12-09T12:39:51.242Z,8.63
2023-12-09T12:42:22.419Z,8.64
2023-12-09T12:44:54.800Z,8.63
2023-12-09T12:47:24.564Z,8.57
2023-12-09T12:49:54.563Z,8.51
2023-12-09T12:52:27.881Z,8.50
2023-12-09T13:06:54.238Z,8.10
2023-12-09T13:13:38.850Z,7.95
2023-12-09T13:19:55.418Z,7.67
2023-12-09T13:23:19.369Z,7.53
2023-12-09T13:26:26.193Z,7.39
2023-12-09T13:29:21.175Z,7.23
2023-12-09T13:32:03.705Z,7.15
2023-12-09T13:35:00.537Z,7.05
2023-12-09T13:41:32.296Z,6.89
2023-12-09T13:44:02.644Z,6.84
2023-12-09T13:46:32.565Z,6.78
2023-12-09T13:49:02.701Z,6.72
2023-12-09T13:51:35.292Z,6.66
2023-12-09T13:54:05.475Z,6.60
2023-12-09T13:56:37.098Z,6.55
2023-12-09T13:59:08.247Z,6.49
2023-12-09T14:01:38.038Z,6.44
2023-12-09T14:04:10.302Z,6.38
2023-12-09T14:06:42.742Z,6.34
2023-12-09T14:09:16.481Z,6.30
2023-12-09T14:11:46.360Z,6.26
2023-12-09T14:14:16.128Z,6.25
2023-12-09T14:16:45.961Z,6.24
2023-12-09T14:19:16.080Z,6.19
2023-12-09T14:21:48.607Z,6.16
2023-12-09T14:24:20.489Z,6.13
2023-12-09T14:26:50.432Z,6.09
2023-12-09T14:29:22.784Z,6.08
2023-12-09T14:31:52.621Z,6.05
2023-12-09T14:34:23.074Z,6.04
2023-12-09T14:36:55.836Z,6.05
2023-12-09T14:39:25.964Z,6.04
2023-12-09T14:41:56.078Z,6.01
2023-12-09T14:44:25.845Z,6.00
2023-12-09T14:46:55.672Z,5.98
2023-12-09T14:49:25.895Z,5.96
2023-12-09T14:51:58.578Z,5.92
2023-12-09T14:54:28.476Z,5.91
2023-12-09T14:56:58.355Z,5.89
2023-12-09T14:59:28.213Z,5.87
2023-12-09T15:01:57.967Z,5.86
2023-12-09T15:04:28.033Z,5.84
2023-12-09T15:07:00.675Z,5.82
2023-12-09T15:09:30.548Z,5.80
2023-12-09T15:12:01.892Z,5.77
2023-12-09T15:14:32.492Z,5.75
2023-12-09T15:17:02.306Z,5.75
2023-12-09T15:19:32.214Z,5.73
2023-12-09T15:22:05.035Z,5.71
2023-12-09T15:24:35.128Z,5.71
2023-12-09T15:27:05.213Z,5.68
2023-12-09T15:29:35.082Z,5.67
2023-12-09T15:32:04.841Z,5.65
2023-12-09T15:34:34.791Z,5.63
2023-12-09T15:37:07.428Z,5.61
2023-12-09T15:39:40.599Z,5.56
2023-12-09T15:42:10.536Z,5.54
2023-12-09T15:44:40.967Z,5.53
2023-12-09T15:47:12.646Z,5.51
2023-12-09T15:49:42.621Z,5.51
2023-12-09T15:52:16.765Z,5.50
2023-12-09T15:54:46.749Z,5.51
2023-12-09T15:57:16.712Z,5.51
2023-12-09T15:59:47.725Z,5.52
2023-12-09T16:02:17.835Z,5.51
2023-12-09T16:04:48.568Z,5.49
2023-12-09T16:07:21.462Z,5.48
2023-12-09T16:09:55.121Z,5.49
2023-12-09T16:12:28.081Z,5.50
2023-12-09T16:14:58.601Z,5.51
2023-12-09T16:17:29.263Z,5.50
2023-12-09T16:19:59.101Z,5.51
2023-12-09T16:22:31.870Z,5.50
2023-12-09T16:25:02.285Z,5.51
2023-12-09T16:27:35.917Z,5.52
2023-12-09T16:30:06.237Z,5.54
2023-12-09T16:32:36.268Z,5.53
2023-12-09T16:35:06.936Z,5.55
2023-12-09T16:37:41.474Z,5.55
2023-12-09T16:40:13.790Z,5.56
2023-12-09T16:42:44.542Z,5.58
2023-12-09T16:45:15.240Z,5.58
2023-12-09T16:47:46.237Z,5.59
2023-12-09T16:50:16.511Z,5.59
2023-12-09T16:52:48.913Z,5.61
2023-12-09T16:55:21.467Z,5.62
2023-12-09T16:57:51.749Z,5.62
2023-12-09T17:00:22.419Z,5.64
2023-12-09T17:02:52.383Z,5.66
2023-12-09T17:05:22.346Z,5.68
2023-12-09T17:07:54.972Z,5.69
2023-12-09T17:10:24.781Z,5.69
2023-12-09T17:12:54.622Z,5.69
2023-12-09T17:15:25.791Z,5.70
2023-12-09T17:17:56.490Z,5.73
2023-12-09T17:20:26.306Z,5.72
2023-12-09T17:22:59.248Z,5.73
2023-12-09T17:25:29.017Z,5.74
2023-12-09T17:27:58.805Z,5.76
2023-12-09T17:30:28.718Z,5.75
2023-12-09T17:32:58.535Z,5.77
2023-12-09T17:35:30.639Z,5.76
2023-12-09T17:38:03.454Z,5.76
2023-12-09T17:40:33.222Z,5.76
2023-12-09T17:43:03.041Z,5.80
2023-12-09T17:45:32.849Z,5.81
2023-12-09T17:48:02.817Z,5.82
2023-12-09T17:50:32.602Z,5.83
2023-12-09T17:53:05.146Z,5.84
2023-12-09T17:55:35.067Z,5.85
2023-12-09T17:58:04.857Z,5.85
2023-12-09T18:00:34.802Z,5.85
2023-12-09T18:03:04.772Z,5.85
2023-12-09T18:05:34.669Z,5.87
2023-12-09T18:08:07.589Z,5.88
2023-12-09T18:10:37.447Z,5.88
2023-12-09T18:13:07.221Z,5.90
2023-12-09T18:15:37.068Z,5.90
2023-12-09T18:18:07.021Z,5.93
2023-12-09T18:20:36.875Z,5.92
2023-12-09T18:23:09.213Z,5.95
2023-12-09T18:25:38.997Z,5.96
2023-12-09T18:28:08.792Z,5.99
2023-12-09T18:30:38.706Z,6.01
2023-12-09T18:33:08.807Z,6.01
2023-12-09T18:35:38.697Z,6.02
2023-12-09T18:38:11.083Z,6.04
2023-12-09T18:40:40.850Z,6.06
2023-12-09T18:43:08.758Z,6.08
2023-12-09T18:45:38.942Z,6.09
2023-12-09T18:48:09.396Z,6.13
2023-12-09T18:50:39.314Z,6.16
2023-12-09T18:53:11.848Z,6.17
2023-12-09T18:55:41.648Z,6.18
2023-12-09T18:58:11.420Z,6.18
2023-12-09T19:00:41.289Z,6.18
2023-12-09T19:03:11.195Z,6.20
2023-12-09T19:05:41.007Z,6.22
2023-12-09T19:08:13.369Z,6.23
2023-12-09T19:10:43.233Z,6.26
2023-12-09T19:13:12.989Z,6.26
2023-12-09T19:15:42.823Z,6.26
2023-12-09T19:18:13.347Z,6.29
2023-12-09T19:20:43.194Z,6.31
2023-12-09T19:23:15.663Z,6.34
2023-12-09T19:25:45.452Z,6.36
2023-12-09T19:28:15.345Z,6.38
2023-12-09T19:30:45.333Z,6.41
2023-12-09T19:33:15.413Z,6.44
2023-12-09T19:35:45.207Z,6.46
2023-12-09T19:38:17.661Z,6.48
2023-12-09T19:40:47.522Z,6.51
2023-12-09T19:43:17.501Z,6.55
2023-12-09T19:45:47.280Z,6.58
2023-12-09T19:48:17.385Z,6.62
2023-12-09T19:50:47.297Z,6.66
2023-12-09T19:53:19.620Z,6.69
2023-12-09T19:55:49.667Z,6.74
2023-12-09T19:58:19.773Z,6.78
2023-12-09T20:00:49.820Z,6.83
2023-12-09T20:03:19.737Z,6.86
2023-12-09T20:05:49.566Z,6.89
2023-12-09T20:08:21.905Z,6.95
2023-12-09T20:10:52.310Z,6.99
2023-12-09T20:13:22.087Z,7.00
2023-12-09T20:15:51.963Z,7.02
2023-12-09T20:18:21.856Z,7.03
2023-12-09T20:20:51.961Z,7.07
2023-12-09T20:23:24.385Z,7.12
2023-12-09T20:25:54.141Z,7.15
2023-12-09T20:28:24.388Z,7.19
2023-12-09T20:30:54.625Z,7.22
2023-12-09T20:33:24.789Z,7.26
2023-12-09T20:35:54.655Z,7.31
2023-12-09T20:38:27.027Z,7.32
2023-12-09T20:40:56.934Z,7.34
2023-12-09T20:43:26.711Z,7.37
2023-12-09T20:46:01.799Z,7.44
2023-12-09T20:48:31.790Z,7.50
2023-12-09T20:51:02.100Z,7.57
2023-12-09T20:53:34.456Z,7.63
2023-12-09T20:56:05.680Z,7.70
2023-12-09T20:58:35.492Z,7.76
2023-12-09T21:01:05.359Z,7.82
2023-12-09T21:03:35.247Z,7.86
2023-12-09T21:06:05.059Z,7.88
2023-12-09T21:08:37.394Z,7.85
2023-12-09T21:11:07.413Z,7.81
2023-12-09T21:13:37.165Z,7.80
2023-12-09T21:16:07.823Z,7.82
2023-12-09T21:18:38.124Z,7.83
2023-12-09T21:21:08.976Z,7.84
2023-12-09T21:23:41.379Z,7.84
2023-12-09T21:26:11.452Z,7.86
2023-12-09T21:28:41.193Z,7.85
2023-12-09T21:31:14.341Z,7.85
2023-12-09T21:33:44.633Z,7.85
2023-12-09T21:36:15.921Z,7.85
2023-12-09T21:38:48.561Z,7.85
2023-12-09T21:41:21.963Z,7.84
2023-12-09T21:43:52.540Z,7.82
2023-12-09T21:46:23.748Z,7.80
2023-12-09T21:48:54.562Z,7.82
2023-12-09T21:51:24.536Z,7.81
2023-12-09T21:53:56.944Z,7.82
2023-12-09T21:56:29.445Z,7.83
2023-12-09T21:58:57.159Z,7.83
2023-12-09T22:01:26.950Z,7.84
2023-12-09T22:03:56.750Z,7.85
2023-12-09T22:06:26.680Z,7.87
2023-12-09T22:09:00.522Z,7.87
2023-12-09T22:11:31.284Z,7.88
2023-12-09T22:14:01.076Z,7.88
2023-12-09T22:16:30.917Z,7.89
2023-12-09T22:19:00.847Z,7.88
2023-12-09T22:21:30.696Z,7.88
2023-12-09T22:24:03.138Z,7.88
2023-12-09T22:26:32.913Z,7.89
2023-12-09T22:29:02.700Z,7.88
2023-12-09T22:31:32.691Z,7.87
2023-12-09T22:34:04.237Z,7.86
2023-12-09T22:36:34.375Z,7.87
2023-12-09T22:39:09.334Z,7.87
2023-12-09T22:41:39.179Z,7.88
2023-12-09T22:44:09.106Z,7.89
2023-12-09T22:46:39.115Z,7.90
2023-12-09T22:49:09.033Z,7.90
2023-12-09T22:51:39.624Z,7.91
2023-12-09T22:54:12.069Z,7.93
2023-12-09T22:56:41.880Z,7.94
2023-12-09T22:59:11.781Z,7.96
2023-12-09T23:01:41.601Z,7.96
2023-12-09T23:04:12.125Z,7.97
2023-12-09T23:06:41.953Z,7.97
2023-12-09T23:09:14.427Z,8.01
2023-12-09T23:11:44.216Z,8.01
2023-12-09T23:14:15.138Z,8.01
2023-12-09T23:16:46.045Z,8.03
2023-12-09T23:19:13.312Z,8.03
2023-12-09T23:21:44.125Z,8.02
2023-12-09T23:24:16.558Z,8.02
2023-12-09T23:26:46.422Z,8.02
2023-12-09T23:29:16.176Z,8.01
2023-12-09T23:31:45.952Z,8.02
2023-12-09T23:34:17.230Z,8.02
2023-12-09T23:36:47.723Z,8.02
2023-12-09T23:39:20.163Z,8.03
2023-12-09T23:41:49.941Z,8.05
2023-12-09T23:44:19.689Z,8.06
2023-12-09T23:46:49.523Z,8.08
2023-12-09T23:49:19.327Z,8.08
2023-12-09T23:51:49.153Z,8.08
2023-12-09T23:54:21.626Z,8.09
2023-12-09T23:56:51.532Z,8.08
2023-12-09T23:59:21.300Z,8.06
